Monongahela, Pennsylvania
Current Conditions -  °F | °C
As of 7:53 PM on Saturday 25 Oct 2014 (Local Time) from KAGC Reporting Station
Scattered Clouds Scattered Clouds  
Wind Chill: 62°   Ceiling: Unl
Heat Index: 62°   Visibility: 10mi
Dew Point: 48°   Wind: 14mph
Humidity: 60%   Direction: 230°SW
Pressure: 29.75"   Gusts: 22mph
Location:  40.2°N, 79.93°W
Report Text: KAGC 252353Z 23012G19KT 10SM FEW038 SCT050 17/09 A2975 RMK AO2 SLP079 T01670089 10189 20167 56005
Loading
Personal Weather Stations






























Interactive Weather Map
Tropical Storm Tracking
New forecast layout! Learn more

10-Day Weather Forecast

Advertisements
Track Severe Weather on mobile